Time;durP1;ratioP1;P1;durP2;ratioP2;P2;SDS_P1;SDS_P2;PMS_P1;PMS_P2;Temp;Humidity;BMP_temperature;BMP_pressure;BME280_temperature;BME280_humidity;BME280_pressure;Samples;Min_cycle;Max_cycle;Signal;HPM_P1;HPM_P2
2024/01/23 00:01:12;;;;;;;12.10;11.40;;;8.40;99.90;;;;;;5016457;28;20191;-39
2024/01/23 00:03:37;;;;;;;11.93;11.23;;;8.40;99.90;;;;;;5009356;28;20583;-51
2024/01/23 00:06:03;;;;;;;11.67;11.10;;;8.30;99.90;;;;;;5023683;28;20194;-55
2024/01/23 00:08:29;;;;;;;12.43;11.63;;;8.30;99.90;;;;;;5009624;28;20293;-54
2024/01/23 00:10:56;;;;;;;12.90;11.77;;;8.20;99.90;;;;;;5012243;28;20471;-54
2024/01/23 00:13:22;;;;;;;11.80;11.20;;;8.20;99.90;;;;;;5012346;28;20649;-55
2024/01/23 00:15:47;;;;;;;12.07;11.40;;;8.20;99.90;;;;;;5023203;28;20416;-57
2024/01/23 00:18:13;;;;;;;12.43;11.60;;;8.20;99.90;;;;;;5016287;28;20510;-55
2024/01/23 00:20:38;;;;;;;12.13;11.40;;;8.10;99.90;;;;;;5021851;28;20697;-56
2024/01/23 00:23:04;;;;;;;12.57;11.37;;;8.10;99.90;;;;;;5023753;28;20182;-56
2024/01/23 00:25:30;;;;;;;12.30;11.40;;;8.20;99.90;;;;;;5023877;28;20639;-54
2024/01/23 00:27:56;;;;;;;12.37;11.57;;;8.10;99.90;;;;;;5005579;28;20186;-50
2024/01/23 00:30:21;;;;;;;12.97;12.10;;;8.10;99.90;;;;;;5023201;28;20463;-57
2024/01/23 00:32:47;;;;;;;12.80;12.00;;;8.00;99.90;;;;;;5023373;28;20202;-56
2024/01/23 00:35:13;;;;;;;11.80;11.20;;;8.10;99.90;;;;;;5023542;28;20835;-55
2024/01/23 00:37:38;;;;;;;13.13;12.07;;;8.00;99.90;;;;;;5023132;28;20201;-55
2024/01/23 00:40:04;;;;;;;12.17;11.57;;;8.00;99.90;;;;;;5023205;28;20217;-58
2024/01/23 00:42:30;;;;;;;12.23;11.63;;;7.90;99.90;;;;;;5023376;28;20268;-57
2024/01/23 00:44:56;;;;;;;12.17;11.57;;;7.90;99.90;;;;;;5023054;28;21018;-56
2024/01/23 00:47:21;;;;;;;12.27;11.50;;;7.90;99.90;;;;;;5023291;28;21563;-56
2024/01/23 00:49:47;;;;;;;11.93;11.33;;;7.80;99.90;;;;;;5022719;28;21313;-47
2024/01/23 00:52:13;;;;;;;12.80;11.80;;;7.80;99.90;;;;;;5023231;28;20174;-56
2024/01/23 00:54:39;;;;;;;12.20;11.47;;;7.80;99.90;;;;;;5023651;28;20556;-57
2024/01/23 00:57:05;;;;;;;12.23;11.63;;;7.80;99.90;;;;;;5023193;28;20190;-55
2024/01/23 00:59:31;;;;;;;12.27;11.47;;;7.80;99.90;;;;;;5022911;28;20427;-56
2024/01/23 01:01:57;;;;;;;12.53;11.90;;;7.80;99.90;;;;;;5022989;28;20487;-57
2024/01/23 01:04:23;;;;;;;12.13;11.63;;;7.70;99.90;;;;;;5022578;28;20425;-57
2024/01/23 01:06:48;;;;;;;12.50;11.70;;;7.60;99.90;;;;;;5022858;28;20218;-54
2024/01/23 01:09:14;;;;;;;12.10;11.50;;;7.60;99.90;;;;;;5022373;28;20240;-53
2024/01/23 01:11:39;;;;;;;12.33;11.70;;;7.50;99.90;;;;;;5022468;28;20289;-56
2024/01/23 01:14:05;;;;;;;14.20;13.30;;;7.50;99.90;;;;;;5022679;28;20549;-57
2024/01/23 01:16:31;;;;;;;13.93;12.73;;;7.50;99.90;;;;;;5022565;28;20186;-54
2024/01/23 01:18:58;;;;;;;12.97;12.27;;;7.50;99.90;;;;;;5022420;28;20245;-56
2024/01/23 01:21:24;;;;;;;12.43;11.73;;;7.60;99.90;;;;;;5022067;28;20429;-56
2024/01/23 01:23:49;;;;;;;12.80;12.00;;;7.60;99.90;;;;;;5022568;28;20427;-52
2024/01/23 01:26:15;;;;;;;13.40;12.40;;;7.70;99.90;;;;;;5022420;28;20177;-56
2024/01/23 01:28:41;;;;;;;11.63;11.07;;;7.60;99.90;;;;;;5022546;28;20191;-57
2024/01/23 01:31:06;;;;;;;12.37;11.47;;;7.60;99.90;;;;;;5022699;28;20492;-57
2024/01/23 01:33:32;;;;;;;12.37;11.57;;;7.60;99.90;;;;;;5021407;28;20839;-57
2024/01/23 01:35:58;;;;;;;12.37;11.67;;;7.70;99.90;;;;;;5004688;28;20196;-56
2024/01/23 01:38:24;;;;;;;12.33;11.53;;;7.70;99.90;;;;;;5023069;28;20173;-56
2024/01/23 01:40:50;;;;;;;12.27;11.70;;;7.70;99.90;;;;;;5022047;28;20213;-56
2024/01/23 01:43:29;;;;;;;12.00;11.20;;;7.70;99.90;;;;;;5022303;28;20453;-57
2024/01/23 01:46:13;;;;;;;12.53;11.93;;;7.70;99.90;;;;;;5021738;28;20175;-56
2024/01/23 01:48:40;;;;;;;12.70;11.90;;;7.70;99.90;;;;;;5004117;28;20467;-57
2024/01/23 01:51:06;;;;;;;12.80;12.10;;;7.70;99.90;;;;;;5021876;28;20569;-53
2024/01/23 01:53:32;;;;;;;13.53;12.27;;;7.80;99.90;;;;;;5022022;28;20413;-56
2024/01/23 01:55:58;;;;;;;12.80;12.00;;;7.80;99.90;;;;;;5021454;28;20451;-56
2024/01/23 01:58:27;;;;;;;12.90;12.10;;;7.80;99.90;;;;;;5022004;28;20428;-52
2024/01/23 02:00:53;;;;;;;12.90;12.00;;;7.90;99.90;;;;;;5021475;28;21056;-56
2024/01/23 02:03:21;;;;;;;12.57;11.67;;;7.80;99.90;;;;;;5022131;28;20425;-56
2024/01/23 02:05:47;;;;;;;12.57;11.60;;;7.80;99.90;;;;;;5021251;28;20906;-57
2024/01/23 02:08:14;;;;;;;12.27;11.37;;;7.70;99.90;;;;;;5022301;28;20824;-55
2024/01/23 02:10:40;;;;;;;13.03;12.23;;;7.80;99.90;;;;;;5021693;28;20465;-57
2024/01/23 02:13:06;;;;;;;13.60;12.80;;;7.80;99.90;;;;;;5021513;28;20416;-58
2024/01/23 02:15:32;;;;;;;12.60;12.00;;;7.70;99.90;;;;;;5021601;28;20540;-57
2024/01/23 02:17:58;;;;;;;13.27;12.10;;;7.70;99.90;;;;;;5020918;28;20437;-50
2024/01/23 02:20:24;;;;;;;12.27;11.47;;;7.70;99.90;;;;;;4999336;28;20573;-57
2024/01/23 02:22:50;;;;;;;12.67;11.90;;;7.70;99.90;;;;;;5013632;28;20190;-55
2024/01/23 02:25:15;;;;;;;13.33;12.30;;;7.70;99.90;;;;;;5002398;28;20488;-57
2024/01/23 02:27:41;;;;;;;12.70;11.97;;;7.60;99.90;;;;;;5002699;28;20437;-53
2024/01/23 02:30:07;;;;;;;12.23;11.60;;;7.60;99.90;;;;;;5002307;28;20211;-55
2024/01/23 02:32:33;;;;;;;13.03;12.13;;;7.60;99.90;;;;;;5004220;28;20638;-57
2024/01/23 02:34:58;;;;;;;12.70;11.90;;;7.60;99.90;;;;;;5005863;28;20424;-57
2024/01/23 02:37:24;;;;;;;12.20;11.50;;;7.60;99.90;;;;;;5020216;28;20288;-58
2024/01/23 02:39:50;;;;;;;12.67;11.97;;;7.50;99.90;;;;;;5013744;28;20218;-57
2024/01/23 02:42:16;;;;;;;11.90;11.30;;;7.60;99.90;;;;;;5007890;28;20183;-57
2024/01/23 02:44:45;;;;;;;11.87;11.20;;;7.70;99.90;;;;;;5014665;28;20415;-56
2024/01/23 02:47:11;;;;;;;12.70;11.90;;;7.60;99.90;;;;;;4993497;28;20990;-57
2024/01/23 02:49:37;;;;;;;11.83;11.13;;;7.70;99.90;;;;;;5014060;28;20409;-57
2024/01/23 02:52:03;;;;;;;11.60;10.80;;;7.80;99.90;;;;;;5009171;28;20421;-56
2024/01/23 02:54:31;;;;;;;11.87;11.27;;;7.80;99.90;;;;;;5017135;28;20175;-57
2024/01/23 02:56:56;;;;;;;11.93;11.33;;;7.90;99.90;;;;;;5008809;28;20516;-58
2024/01/23 02:59:22;;;;;;;13.03;11.97;;;7.90;99.90;;;;;;5010795;28;20517;-57
2024/01/23 03:01:48;;;;;;;12.40;11.60;;;7.80;99.90;;;;;;5013476;28;20179;-55
2024/01/23 03:04:13;;;;;;;12.33;11.43;;;7.90;99.90;;;;;;5020525;28;20194;-57
2024/01/23 03:06:39;;;;;;;11.50;11.00;;;7.90;99.90;;;;;;5012366;28;20186;-51
2024/01/23 03:09:06;;;;;;;12.57;11.87;;;7.90;99.90;;;;;;5020181;28;20197;-49
2024/01/23 03:11:32;;;;;;;12.23;11.47;;;7.90;99.90;;;;;;5007363;28;20206;-40
2024/01/23 03:13:57;;;;;;;12.23;11.47;;;8.00;1.00;;;;;;5017006;28;20413;-40
2024/01/23 03:16:23;;;;;;;12.10;11.43;;;8.00;1.00;;;;;;4994473;28;20879;-39
2024/01/23 03:18:49;;;;;;;11.57;10.90;;;8.10;11.10;;;;;;5020192;28;20222;-40
2024/01/23 03:21:14;;;;;;;11.97;11.13;;;8.10;71.70;;;;;;5007035;28;20224;-40
2024/01/23 03:23:40;;;;;;;12.20;11.50;;;8.10;98.10;;;;;;5011701;28;21051;-40
2024/01/23 03:26:05;;;;;;;12.23;11.43;;;8.10;98.60;;;;;;5013654;28;20545;-39
2024/01/23 03:28:31;;;;;;;11.80;11.13;;;8.00;98.80;;;;;;5019493;28;20198;-40
2024/01/23 03:30:57;;;;;;;12.20;11.23;;;8.10;99.50;;;;;;5012157;28;20207;-39
2024/01/23 03:33:22;;;;;;;10.73;10.33;;;8.10;99.80;;;;;;5010975;28;20193;-39
2024/01/23 03:35:49;;;;;;;10.97;10.40;;;8.10;99.90;;;;;;5011357;28;20183;-42
2024/01/23 03:38:15;;;;;;;12.00;11.40;;;8.20;99.90;;;;;;5018319;28;20183;-39
2024/01/23 03:40:40;;;;;;;16.70;15.50;;;8.30;99.90;;;;;;5020159;28;20458;-39
2024/01/23 03:43:06;;;;;;;17.33;16.10;;;8.00;1.00;;;;;;5006684;28;20217;-43
2024/01/23 03:45:32;;;;;;;16.33;15.50;;;7.50;99.90;;;;;;5021171;28;20182;-41
2024/01/23 03:47:57;;;;;;;16.80;15.50;;;7.00;1.00;;;;;;5014474;28;20198;-41
2024/01/23 03:50:23;;;;;;;16.43;15.53;;;6.60;99.90;;;;;;5015826;28;20214;-40
2024/01/23 03:52:49;;;;;;;16.17;15.48;;;6.40;1.00;;;;;;5005091;28;20213;-40
2024/01/23 03:55:15;;;;;;;16.03;15.23;;;6.30;1.00;;;;;;5010760;28;20186;-39
2024/01/23 03:57:40;;;;;;;16.40;15.40;;;6.10;1.00;;;;;;5015431;28;20187;-40
2024/01/23 04:00:07;;;;;;;15.57;14.67;;;6.00;1.00;;;;;;5019942;28;20471;-43
2024/01/23 04:02:36;;;;;;;15.13;14.43;;;5.90;6.00;;;;;;5015665;28;20285;-39
2024/01/23 04:05:04;;;;;;;15.23;14.43;;;5.90;28.40;;;;;;5020279;28;20207;-39
2024/01/23 04:07:31;;;;;;;15.85;14.75;;;5.90;44.20;;;;;;5006658;28;20197;-39
2024/01/23 04:09:56;;;;;;;15.50;14.60;;;5.80;42.30;;;;;;5008190;28;20194;-40
2024/01/23 04:12:22;;;;;;;15.60;14.80;;;5.80;46.10;;;;;;5013411;28;21093;-40
2024/01/23 04:14:48;;;;;;;15.90;14.90;;;5.70;50.20;;;;;;5009046;28;20190;-39
2024/01/23 04:17:13;;;;;;;16.27;15.20;;;5.70;40.20;;;;;;5016415;28;20289;-39
2024/01/23 04:19:39;;;;;;;15.30;14.50;;;5.70;37.80;;;;;;5020454;28;20327;-42
2024/01/23 04:22:05;;;;;;;16.57;15.50;;;5.70;44.90;;;;;;5023431;28;20193;-40
2024/01/23 04:24:30;;;;;;;15.97;15.00;;;5.80;46.70;;;;;;5023941;28;20610;-38
2024/01/23 04:26:56;;;;;;;15.67;14.87;;;5.90;36.90;;;;;;5023978;28;21001;-39
2024/01/23 04:29:21;;;;;;;15.20;14.50;;;5.80;46.50;;;;;;5023411;28;20666;-40
2024/01/23 04:31:48;;;;;;;15.90;14.90;;;5.80;53.70;;;;;;5023403;28;20679;-38
2024/01/23 04:34:13;;;;;;;15.02;14.23;;;5.90;17.20;;;;;;5023631;28;20251;-39
2024/01/23 04:36:39;;;;;;;15.40;14.63;;;6.00;24.00;;;;;;5023119;28;21044;-39
2024/01/23 04:39:05;;;;;;;14.90;14.20;;;5.90;22.70;;;;;;5022980;28;20183;-39
2024/01/23 04:41:31;;;;;;;15.23;14.30;;;5.90;23.90;;;;;;5022884;28;20221;-40
2024/01/23 04:43:56;;;;;;;15.50;14.60;;;5.90;26.40;;;;;;5005459;28;20198;-42
2024/01/23 04:46:23;;;;;;;15.60;14.70;;;6.00;27.80;;;;;;5023156;28;20241;-39
2024/01/23 04:48:48;;;;;;;14.88;14.07;;;5.90;28.10;;;;;;5022879;28;20193;-39
2024/01/23 04:51:14;;;;;;;15.13;14.23;;;5.90;28.00;;;;;;5023197;28;20207;-41
2024/01/23 04:53:40;;;;;;;14.60;13.80;;;5.90;25.30;;;;;;5023103;28;20325;-39
2024/01/23 04:56:06;;;;;;;14.03;13.33;;;6.00;29.40;;;;;;5023486;28;20181;-39
2024/01/23 04:58:31;;;;;;;15.13;14.33;;;5.90;26.20;;;;;;5023027;28;20174;-39
2024/01/23 05:00:57;;;;;;;14.70;14.00;;;5.90;31.30;;;;;;5022636;28;20618;-38
2024/01/23 05:03:23;;;;;;;14.70;13.80;;;5.90;26.60;;;;;;5023535;28;20186;-56
2024/01/23 05:05:48;;;;;;;14.00;13.30;;;5.90;26.60;;;;;;5022687;28;20301;-57
2024/01/23 05:08:15;;;;;;;15.53;14.17;;;5.90;29.20;;;;;;5023443;28;20183;-39
2024/01/23 05:10:43;;;;;;;14.20;13.48;;;5.80;27.00;;;;;;5022633;28;20210;-39
2024/01/23 05:13:08;;;;;;;14.10;13.40;;;5.80;28.40;;;;;;5022729;28;20181;-39
2024/01/23 05:15:34;;;;;;;14.27;13.40;;;5.80;33.60;;;;;;5022647;28;21003;-38
2024/01/23 05:17:59;;;;;;;14.00;13.13;;;5.80;27.00;;;;;;5021980;28;20171;-39
2024/01/23 05:20:25;;;;;;;13.47;12.73;;;5.80;22.70;;;;;;5016327;28;20227;-39
2024/01/23 05:22:51;;;;;;;13.23;12.53;;;5.80;14.90;;;;;;5009570;28;20245;-38
2024/01/23 05:25:17;;;;;;;14.80;13.60;;;5.90;1.00;;;;;;5017622;28;20207;-39
2024/01/23 05:27:43;;;;;;;13.30;12.60;;;5.90;1.00;;;;;;5012984;28;20592;-40
2024/01/23 05:30:09;;;;;;;12.50;11.90;;;5.80;1.00;;;;;;5009270;28;20257;-38
2024/01/23 05:32:35;;;;;;;13.45;12.65;;;5.80;1.00;;;;;;5014846;28;20418;-39
2024/01/23 05:35:03;;;;;;;12.97;12.27;;;5.90;1.00;;;;;;5013961;28;20202;-38
2024/01/23 05:37:30;;;;;;;12.10;11.50;;;6.00;1.00;;;;;;5008368;28;20232;-39
2024/01/23 05:39:55;;;;;;;12.38;11.68;;;6.00;1.00;;;;;;5006675;28;21236;-39
2024/01/23 05:42:21;;;;;;;12.53;11.60;;;6.00;1.00;;;;;;5013144;28;20187;-40
2024/01/23 05:44:47;;;;;;;12.27;11.73;;;6.10;1.00;;;;;;5014442;28;20206;-39
2024/01/23 05:47:12;;;;;;;12.10;11.07;;;6.10;1.00;;;;;;4997954;28;20197;-56
2024/01/23 05:49:38;;;;;;;11.40;10.90;;;6.00;1.00;;;;;;5014687;28;20371;-49
2024/01/23 05:52:04;;;;;;;11.67;11.00;;;6.00;1.00;;;;;;5019421;28;20207;-55
2024/01/23 05:54:29;;;;;;;10.10;9.70;;;6.00;1.00;;;;;;5016855;28;20191;-52
2024/01/23 05:56:55;;;;;;;11.23;10.50;;;6.00;1.00;;;;;;5020090;28;20445;-49
2024/01/23 05:59:20;;;;;;;10.90;10.30;;;5.90;1.00;;;;;;5018653;28;20202;-54
2024/01/23 06:01:46;;;;;;;12.20;11.10;;;5.90;1.00;;;;;;5018647;28;20285;-51
2024/01/23 06:04:12;;;;;;;11.20;10.70;;;5.90;1.00;;;;;;4994286;28;20183;-54
2024/01/23 06:06:43;;;;;;;10.20;9.70;;;5.90;1.00;;;;;;5014610;28;20190;-48
2024/01/23 06:09:10;;;;;;;11.45;10.70;;;5.90;1.00;;;;;;5016683;28;20186;-50
2024/01/23 06:11:37;;;;;;;11.30;10.60;;;5.90;1.00;;;;;;5019947;28;20198;-50
2024/01/23 06:14:03;;;;;;;11.48;10.98;;;6.00;1.00;;;;;;5018460;28;20376;-50
2024/01/23 06:16:29;;;;;;;10.67;10.17;;;6.00;1.00;;;;;;5019631;28;20182;-56
2024/01/23 06:18:55;;;;;;;10.93;10.43;;;6.00;1.00;;;;;;5019319;28;20292;-51
2024/01/23 06:21:20;;;;;;;10.80;10.20;;;6.00;1.00;;;;;;5011825;28;20193;-56
2024/01/23 06:23:46;;;;;;;10.33;9.83;;;6.00;1.00;;;;;;5015098;28;20191;-54
2024/01/23 06:26:12;;;;;;;11.63;10.93;;;6.00;1.00;;;;;;5012811;28;20391;-51
2024/01/23 06:28:37;;;;;;;10.00;9.50;;;6.00;1.00;;;;;;5016413;28;20195;-54
2024/01/23 06:31:03;;;;;;;10.63;10.03;;;6.10;1.00;;;;;;5004321;28;20264;-52
2024/01/23 06:33:29;;;;;;;10.97;10.47;;;6.00;1.00;;;;;;5009726;28;20269;-55
2024/01/23 06:35:54;;;;;;;10.90;10.40;;;6.00;1.00;;;;;;5011934;28;20273;-56
2024/01/23 06:38:20;;;;;;;10.10;9.63;;;5.90;99.90;;;;;;5018161;28;20190;-51
2024/01/23 06:40:46;;;;;;;10.17;9.67;;;5.90;99.90;;;;;;5011757;28;20669;-53
2024/01/23 06:43:11;;;;;;;10.90;10.40;;;5.90;1.00;;;;;;5019405;28;20186;-56
2024/01/23 06:45:37;;;;;;;10.80;10.37;;;5.90;99.90;;;;;;5011593;28;20559;-39
2024/01/23 06:48:04;;;;;;;10.27;9.80;;;5.80;1.00;;;;;;5013266;28;20191;-38
2024/01/23 06:50:29;;;;;;;11.30;10.60;;;5.80;1.00;;;;;;5014212;28;20213;-39
2024/01/23 06:52:55;;;;;;;10.70;10.20;;;5.80;1.00;;;;;;5018866;28;20528;-41
2024/01/23 06:55:20;;;;;;;11.10;10.57;;;5.90;1.00;;;;;;5009533;28;20222;-38
2024/01/23 06:57:49;;;;;;;11.60;11.03;;;5.90;99.90;;;;;;5016943;28;20752;-39
2024/01/23 07:00:15;;;;;;;11.07;10.57;;;6.00;99.90;;;;;;5017375;28;20716;-42
2024/01/23 07:02:40;;;;;;;10.53;10.03;;;6.00;99.90;;;;;;5018225;28;20191;-54
2024/01/23 07:05:06;;;;;;;11.17;10.67;;;6.10;99.90;;;;;;5005040;28;20951;-51
2024/01/23 07:07:32;;;;;;;12.00;11.10;;;6.10;99.90;;;;;;5019010;28;20198;-57
2024/01/23 07:09:57;;;;;;;12.23;11.33;;;6.10;99.90;;;;;;5013295;28;20460;-54
2024/01/23 07:12:23;;;;;;;10.80;10.20;;;6.10;1.00;;;;;;5016348;28;20706;-54
2024/01/23 07:14:48;;;;;;;11.10;10.60;;;6.10;1.00;;;;;;5017110;28;20579;-48
2024/01/23 07:17:15;;;;;;;19.37;17.70;;;6.10;1.00;;;;;;5018762;28;20229;-52
2024/01/23 07:19:41;;;;;;;10.52;10.02;;;6.20;1.00;;;;;;5002932;28;20494;-53
2024/01/23 07:22:06;;;;;;;11.20;10.60;;;6.20;1.00;;;;;;5017760;28;20183;-56
2024/01/23 07:24:32;;;;;;;11.30;10.47;;;6.20;99.90;;;;;;5015118;28;20421;-53
2024/01/23 07:26:58;;;;;;;10.53;9.93;;;6.10;1.00;;;;;;5017773;28;20233;-45
2024/01/23 07:29:23;;;;;;;11.03;10.17;;;6.20;1.00;;;;;;5012446;28;20677;-49
2024/01/23 07:31:49;;;;;;;11.00;10.50;;;6.20;99.90;;;;;;5001807;28;20668;-50
2024/01/23 07:34:16;;;;;;;10.83;10.13;;;6.30;1.00;;;;;;5010958;28;20272;-52
2024/01/23 07:36:41;;;;;;;11.15;10.65;;;6.20;99.90;;;;;;5016952;28;20254;-54
2024/01/23 07:39:07;;;;;;;11.27;10.67;;;6.30;44.30;;;;;;5012734;28;20635;-48
2024/01/23 07:41:33;;;;;;;11.13;10.63;;;6.30;1.00;;;;;;5001272;28;20938;-49
2024/01/23 07:43:58;;;;;;;11.30;10.70;;;6.30;1.00;;;;;;5019048;28;20552;-51
2024/01/23 07:46:26;;;;;;;10.80;10.30;;;6.40;1.00;;;;;;5006685;28;20640;-51
2024/01/23 07:48:52;;;;;;;10.05;9.45;;;6.30;99.90;;;;;;5018883;28;20186;-52
2024/01/23 07:51:17;;;;;;;11.37;10.67;;;6.40;99.90;;;;;;5007904;28;20202;-46
2024/01/23 07:53:44;;;;;;;11.30;10.80;;;6.40;99.90;;;;;;5018917;28;20269;-52
2024/01/23 07:56:09;;;;;;;11.20;10.40;;;6.50;1.00;;;;;;5010066;28;20666;-51
2024/01/23 07:58:35;;;;;;;10.43;9.83;;;6.50;99.80;;;;;;5014227;28;20222;-52
2024/01/23 08:01:01;;;;;;;11.60;11.00;;;6.50;1.00;;;;;;5011913;28;20191;-55
2024/01/23 08:03:26;;;;;;;11.53;10.93;;;6.50;1.00;;;;;;5016159;28;20651;-53
2024/01/23 08:05:52;;;;;;;11.23;10.63;;;6.50;99.90;;;;;;5009989;28;20635;-47
2024/01/23 08:08:17;;;;;;;10.30;9.70;;;6.50;1.00;;;;;;5001392;28;20191;-52
2024/01/23 08:10:44;;;;;;;11.60;10.77;;;6.50;99.90;;;;;;5013253;28;20285;-52
2024/01/23 08:13:09;;;;;;;10.93;10.20;;;6.50;99.90;;;;;;5018754;28;20717;-55
2024/01/23 08:15:35;;;;;;;11.40;10.80;;;6.40;99.90;;;;;;5017106;28;20191;-54
2024/01/23 08:18:03;;;;;;;11.03;10.43;;;6.50;1.00;;;;;;5022201;28;20233;-53
2024/01/23 08:20:30;;;;;;;11.35;10.75;;;6.50;99.90;;;;;;5015563;28;20594;-51
2024/01/23 08:22:56;;;;;;;10.40;10.00;;;6.50;1.00;;;;;;5022174;28;20216;-47
2024/01/23 08:25:22;;;;;;;10.50;9.90;;;6.50;1.00;;;;;;5020276;28;20602;-53
2024/01/23 08:27:47;;;;;;;11.20;10.63;;;6.50;99.90;;;;;;5021563;28;20210;-46
2024/01/23 08:30:13;;;;;;;11.40;10.90;;;6.50;1.00;;;;;;5016990;28;20537;-53
2024/01/23 08:32:39;;;;;;;11.43;10.77;;;6.60;99.90;;;;;;5005282;28;20187;-54
2024/01/23 08:35:06;;;;;;;11.23;10.67;;;6.60;1.00;;;;;;5017839;28;20474;-52
2024/01/23 08:37:32;;;;;;;10.53;10.03;;;6.70;99.90;;;;;;5006784;28;20569;-56
2024/01/23 08:39:57;;;;;;;10.63;10.03;;;6.70;99.90;;;;;;5021763;28;20467;-47
2024/01/23 08:42:23;;;;;;;10.50;10.00;;;6.70;99.90;;;;;;5015590;28;20443;-45
2024/01/23 08:44:50;;;;;;;11.20;10.60;;;6.70;1.00;;;;;;5021645;28;20281;-50
2024/01/23 08:47:16;;;;;;;11.10;10.50;;;6.70;99.90;;;;;;5017378;28;20266;-52
2024/01/23 08:49:41;;;;;;;12.03;11.30;;;6.70;1.00;;;;;;5019343;28;20441;-51
2024/01/23 08:52:07;;;;;;;12.20;11.30;;;6.60;1.00;;;;;;5019020;28;21056;-51
2024/01/23 08:54:34;;;;;;;11.30;10.80;;;6.70;95.30;;;;;;5017260;28;20183;-50
2024/01/23 08:57:00;;;;;;;11.70;10.90;;;6.60;1.00;;;;;;5016199;28;20179;-39
2024/01/23 08:59:28;;;;;;;12.10;11.40;;;6.60;99.90;;;;;;5009995;28;21227;-39
2024/01/23 09:01:54;;;;;;;11.53;10.90;;;6.60;1.00;;;;;;5012016;28;20683;-39
2024/01/23 09:04:21;;;;;;;11.77;10.80;;;6.50;8.00;;;;;;5018950;28;20456;-39
2024/01/23 09:06:46;;;;;;;12.02;11.30;;;6.60;1.00;;;;;;5013698;28;20434;-40
2024/01/23 09:09:12;;;;;;;12.70;11.80;;;6.60;99.90;;;;;;5019214;28;20751;-38
2024/01/23 09:11:38;;;;;;;11.00;10.53;;;6.70;99.90;;;;;;5010779;28;20252;-39
2024/01/23 09:14:04;;;;;;;12.23;11.50;;;6.60;48.70;;;;;;4997545;28;20438;-39
2024/01/23 09:16:29;;;;;;;11.70;11.10;;;6.70;99.90;;;;;;5008446;28;20659;-40
2024/01/23 09:18:55;;;;;;;11.20;10.50;;;6.70;1.00;;;;;;5018524;28;20300;-40
2024/01/23 09:21:24;;;;;;;12.03;10.80;;;6.90;38.70;;;;;;5018736;28;20265;-39
2024/01/23 09:23:50;;;;;;;11.63;10.73;;;6.90;1.00;;;;;;5020766;28;20516;-39
2024/01/23 09:26:15;;;;;;;12.37;11.60;;;7.00;99.90;;;;;;5015915;28;20501;-39
2024/01/23 09:28:41;;;;;;;11.57;10.67;;;7.00;99.90;;;;;;5014357;28;20187;-39
2024/01/23 09:31:07;;;;;;;11.83;10.93;;;7.00;99.90;;;;;;5009280;28;20211;-39
2024/01/23 09:33:32;;;;;;;12.10;11.30;;;7.10;1.00;;;;;;5009178;28;20174;-38
2024/01/23 09:35:58;;;;;;;12.10;11.20;;;7.10;1.00;;;;;;5014046;28;20614;-40
2024/01/23 09:38:23;;;;;;;12.90;11.60;;;7.20;1.00;;;;;;5007957;28;20511;-40
2024/01/23 09:40:53;;;;;;;11.33;10.73;;;7.20;99.90;;;;;;5013755;28;20196;-41
2024/01/23 09:43:20;;;;;;;11.40;10.80;;;7.20;99.90;;;;;;5011046;28;20283;-39
2024/01/23 09:45:47;;;;;;;11.83;10.93;;;7.20;36.40;;;;;;5011386;28;20422;-39
2024/01/23 09:48:15;;;;;;;12.47;11.67;;;7.30;1.00;;;;;;5012055;28;20456;-40
2024/01/23 09:50:41;;;;;;;11.07;10.27;;;7.30;1.00;;;;;;5020670;28;20575;-40
2024/01/23 09:53:09;;;;;;;11.80;11.10;;;7.40;1.00;;;;;;5014415;28;20413;-39
2024/01/23 09:55:35;;;;;;;11.60;10.80;;;7.40;1.00;;;;;;5020610;28;20992;-39
2024/01/23 09:58:02;;;;;;;11.90;11.10;;;7.50;1.00;;;;;;5016510;28;20507;-39
2024/01/23 10:00:28;;;;;;;11.90;11.13;;;7.40;1.00;;;;;;5020294;28;20927;-39
2024/01/23 10:02:54;;;;;;;11.00;10.23;;;7.40;1.00;;;;;;5016519;28;20452;-40
2024/01/23 10:05:22;;;;;;;11.37;10.67;;;7.50;1.00;;;;;;5019940;28;20197;-44
2024/01/23 10:07:47;;;;;;;11.40;10.60;;;7.50;1.00;;;;;;5018873;28;20425;-43
2024/01/23 10:10:16;;;;;;;11.73;11.03;;;7.50;1.00;;;;;;5019783;28;20487;-42
2024/01/23 10:12:51;;;;;;;11.73;10.77;;;7.50;1.00;;;;;;5013598;28;20175;-39
2024/01/23 10:15:20;;;;;;;11.50;10.90;;;7.60;1.00;;;;;;5017339;28;20467;-39
2024/01/23 10:17:47;;;;;;;12.13;11.37;;;7.60;1.00;;;;;;5007364;28;20780;-39
2024/01/23 10:20:12;;;;;;;12.63;11.83;;;7.60;1.00;;;;;;5014829;28;20612;-39
2024/01/23 10:22:38;;;;;;;12.37;11.50;;;7.70;1.00;;;;;;5020410;28;20417;-39
2024/01/23 10:25:15;;;;;;;12.90;11.80;;;7.70;99.90;;;;;;5020142;28;20266;-39
2024/01/23 10:27:40;;;;;;;12.33;11.53;;;7.60;99.90;;;;;;5002156;28;20436;-40
2024/01/23 10:30:08;;;;;;;11.87;10.97;;;7.60;99.90;;;;;;5020112;28;20726;-39
2024/01/23 10:32:36;;;;;;;11.63;10.93;;;7.60;99.90;;;;;;5019917;28;20181;-39
2024/01/23 10:35:03;;;;;;;12.00;11.20;;;7.50;99.90;;;;;;5019949;28;20421;-39
2024/01/23 10:37:29;;;;;;;11.50;10.80;;;7.50;99.90;;;;;;5019314;28;20466;-39
2024/01/23 10:39:56;;;;;;;13.13;11.93;;;7.40;99.90;;;;;;5019746;28;20998;-39
2024/01/23 10:42:22;;;;;;;12.13;11.37;;;7.40;99.90;;;;;;5019929;28;20424;-40
2024/01/23 10:44:49;;;;;;;12.10;11.30;;;7.30;99.90;;;;;;5019668;28;20424;-40
2024/01/23 10:47:15;;;;;;;11.77;11.10;;;7.40;99.90;;;;;;5019512;28;20957;-39
2024/01/23 10:49:45;;;;;;;10.77;9.93;;;7.50;99.90;;;;;;5019854;28;20413;-39
2024/01/23 10:52:18;;;;;;;12.17;11.37;;;7.50;99.90;;;;;;5019610;28;20489;-39
2024/01/23 10:54:46;;;;;;;11.27;10.57;;;7.60;99.90;;;;;;5019612;28;20634;-39
2024/01/23 10:57:22;;;;;;;11.33;10.73;;;7.50;99.90;;;;;;5019793;28;20729;-39
2024/01/23 10:59:48;;;;;;;11.70;10.80;;;7.50;99.90;;;;;;5019996;28;20401;-39
2024/01/23 11:02:37;;;;;;;12.63;11.70;;;7.60;99.90;;;;;;5019407;28;20409;-40
2024/01/23 11:05:03;;;;;;;12.07;11.10;;;7.60;99.90;;;;;;5019666;28;20417;-39
2024/01/23 11:07:37;;;;;;;12.63;11.70;;;7.50;99.90;;;;;;5019591;28;20769;-39
2024/01/23 11:10:16;;;;;;;12.17;11.20;;;7.50;99.90;;;;;;5019291;28;20778;-39
2024/01/23 11:12:50;;;;;;;11.63;10.53;;;7.50;99.90;;;;;;5019191;28;20930;-39
2024/01/23 11:15:17;;;;;;;11.97;11.23;;;7.60;99.90;;;;;;5019249;28;20413;-38
2024/01/23 11:17:42;;;;;;;11.77;10.97;;;7.50;99.90;;;;;;5019494;28;20428;-39
2024/01/23 11:20:16;;;;;;;11.37;10.77;;;7.60;99.90;;;;;;5032999;28;20513;-39
2024/01/23 11:22:42;;;;;;;12.23;11.43;;;7.60;99.90;;;;;;5039128;28;20178;-39
2024/01/23 11:25:11;;;;;;;13.43;12.00;;;7.60;99.90;;;;;;5036342;28;20411;-46
2024/01/23 11:27:39;;;;;;;12.10;11.33;;;7.70;99.90;;;;;;5038408;28;20428;-40
2024/01/23 11:30:12;;;;;;;12.73;11.77;;;7.60;99.90;;;;;;5034704;28;21348;-40
2024/01/23 11:32:37;;;;;;;14.17;13.07;;;7.60;99.90;;;;;;5021208;28;20452;-39
2024/01/23 11:35:06;;;;;;;13.13;12.23;;;7.70;99.90;;;;;;5025843;28;20537;-38
2024/01/23 11:37:32;;;;;;;11.93;11.20;;;7.60;99.90;;;;;;5038143;28;20647;-39
2024/01/23 11:40:05;;;;;;;12.97;11.87;;;7.70;99.90;;;;;;5029952;28;20416;-40
2024/01/23 11:42:37;;;;;;;13.20;12.20;;;7.70;99.90;;;;;;5038789;28;20611;-38
2024/01/23 11:45:32;;;;;;;12.23;11.17;;;7.70;99.90;;;;;;5031907;28;20815;-38
2024/01/23 11:48:00;;;;;;;12.77;11.67;;;7.70;99.90;;;;;;5033438;28;20447;-38
2024/01/23 11:50:28;;;;;;;11.60;11.00;;;7.80;99.90;;;;;;5035602;28;20471;-38
2024/01/23 11:52:56;;;;;;;11.40;10.73;;;7.70;89.00;;;;;;5023323;28;20829;-38
2024/01/23 11:55:22;;;;;;;12.33;11.43;;;7.80;66.30;;;;;;5020032;28;20446;-38
2024/01/23 11:57:56;;;;;;;12.30;11.60;;;7.70;53.60;;;;;;5040059;28;20598;-43
2024/01/23 12:00:22;;;;;;;11.80;11.00;;;7.70;74.30;;;;;;5039421;28;20529;-38
2024/01/23 12:02:49;;;;;;;12.73;11.73;;;7.70;52.00;;;;;;5007065;28;20429;-39
2024/01/23 12:05:15;;;;;;;11.67;10.60;;;7.80;44.60;;;;;;5040692;28;20459;-38
2024/01/23 12:07:41;;;;;;;11.87;11.27;;;7.80;44.90;;;;;;5041948;28;20448;-38
2024/01/23 12:10:08;;;;;;;12.07;11.40;;;7.80;57.60;;;;;;5031375;28;20414;-38
2024/01/23 12:12:34;;;;;;;14.63;12.20;;;7.90;22.10;;;;;;5035993;28;20421;-38
2024/01/23 12:15:00;;;;;;;12.37;11.33;;;8.00;1.00;;;;;;5024272;28;20416;-38
2024/01/23 12:17:25;;;;;;;11.77;10.97;;;7.90;11.70;;;;;;5040283;28;20654;-39
2024/01/23 12:19:51;;;;;;;12.53;11.63;;;8.00;4.20;;;;;;5023945;28;20692;-39
2024/01/23 12:22:18;;;;;;;12.63;11.60;;;8.00;8.90;;;;;;5022730;28;20613;-40
2024/01/23 12:24:44;;;;;;;12.23;11.50;;;8.00;1.00;;;;;;5022313;28;20183;-39
2024/01/23 12:27:09;;;;;;;12.20;11.40;;;8.10;1.00;;;;;;5022268;28;20425;-44
2024/01/23 12:29:37;;;;;;;12.80;11.90;;;8.00;1.00;;;;;;5022509;28;20768;-39
2024/01/23 12:32:02;;;;;;;12.43;11.77;;;8.00;1.00;;;;;;5022537;28;20330;-52
2024/01/23 12:34:31;;;;;;;12.00;11.00;;;8.10;1.00;;;;;;5022720;28;20868;-52
2024/01/23 12:37:00;;;;;;;12.53;11.83;;;8.10;1.00;;;;;;5022161;28;20473;-53